Barrington, New Hampshire
Current Conditions -  °F | °C
As of 12:51 AM on Friday 31 Oct 2014 (Local Time) from KDAW Reporting Station
Broken Clouds Broken Clouds  
Wind Chill: 31°   Ceiling: 4800
Heat Index: 36°   Visibility: 10mi
Dew Point: 33°   Wind: 6mph
Humidity: 89%   Direction: 320°NW
Pressure: 30.01"   Gusts: NA
Location:  43.22°N, 71.05°W
Report Text: KDAW 310451Z AUTO 32005KT 10SM BKN048 02/01 A3001 RMK AO2 SLP160 T00220006 401440011
Loading
Personal Weather Stations






























Interactive Weather Map
Tropical Storm Tracking
New forecast layout! Learn more

10-Day Weather Forecast

Advertisements
Track Severe Weather on mobile